sensor_id;sensor_type;location;lat;lon;timestamp;P1;durP1;ratioP1;P2;durP2;ratioP2
48268;SDS011;34088;52.232;5.196;2023-05-07T00:00:20;54.17;;;35.28;;
48268;SDS011;34088;52.232;5.196;2023-05-07T00:02:46;44.03;;;32.60;;
48268;SDS011;34088;52.232;5.196;2023-05-07T00:05:13;51.20;;;35.75;;
48268;SDS011;34088;52.232;5.196;2023-05-07T00:07:39;48.38;;;33.38;;
48268;SDS011;34088;52.232;5.196;2023-05-07T00:10:05;47.00;;;32.60;;
48268;SDS011;34088;52.232;5.196;2023-05-07T00:12:32;48.80;;;33.28;;
48268;SDS011;34088;52.232;5.196;2023-05-07T00:15:02;50.03;;;33.38;;
48268;SDS011;34088;52.232;5.196;2023-05-07T00:17:28;50.30;;;33.97;;
48268;SDS011;34088;52.232;5.196;2023-05-07T00:32:31;40.22;;;28.35;;
48268;SDS011;34088;52.232;5.196;2023-05-07T00:34:57;44.35;;;32.55;;
48268;SDS011;34088;52.232;5.196;2023-05-07T00:37:23;43.20;;;30.48;;
48268;SDS011;34088;52.232;5.196;2023-05-07T00:39:50;42.97;;;31.30;;
48268;SDS011;34088;52.232;5.196;2023-05-07T00:42:16;35.55;;;28.02;;
48268;SDS011;34088;52.232;5.196;2023-05-07T00:44:43;34.58;;;27.83;;
48268;SDS011;34088;52.232;5.196;2023-05-07T00:47:09;40.83;;;28.90;;
48268;SDS011;34088;52.232;5.196;2023-05-07T00:49:37;45.40;;;31.50;;
48268;SDS011;34088;52.232;5.196;2023-05-07T00:52:03;35.55;;;27.45;;
48268;SDS011;34088;52.232;5.196;2023-05-07T00:54:29;38.55;;;28.00;;
48268;SDS011;34088;52.232;5.196;2023-05-07T00:56:55;34.15;;;26.98;;
48268;SDS011;34088;52.232;5.196;2023-05-07T00:59:21;31.92;;;25.75;;
48268;SDS011;34088;52.232;5.196;2023-05-07T01:01:47;31.40;;;25.02;;
48268;SDS011;34088;52.232;5.196;2023-05-07T01:04:13;32.08;;;25.60;;
48268;SDS011;34088;52.232;5.196;2023-05-07T01:06:39;32.90;;;25.77;;
48268;SDS011;34088;52.232;5.196;2023-05-07T01:09:06;37.33;;;27.70;;
48268;SDS011;34088;52.232;5.196;2023-05-07T01:11:32;35.25;;;27.15;;
48268;SDS011;34088;52.232;5.196;2023-05-07T01:13:58;31.42;;;24.00;;
48268;SDS011;34088;52.232;5.196;2023-05-07T01:16:25;30.60;;;23.80;;
48268;SDS011;34088;52.232;5.196;2023-05-07T01:18:51;26.33;;;22.50;;
48268;SDS011;34088;52.232;5.196;2023-05-07T01:21:18;33.45;;;24.20;;
48268;SDS011;34088;52.232;5.196;2023-05-07T01:23:44;28.33;;;23.08;;
48268;SDS011;34088;52.232;5.196;2023-05-07T01:26:10;29.95;;;23.48;;
48268;SDS011;34088;52.232;5.196;2023-05-07T01:28:36;27.67;;;21.65;;
48268;SDS011;34088;52.232;5.196;2023-05-07T01:31:03;26.38;;;21.40;;
48268;SDS011;34088;52.232;5.196;2023-05-07T01:33:30;26.17;;;21.50;;
48268;SDS011;34088;52.232;5.196;2023-05-07T01:35:57;29.35;;;22.23;;
48268;SDS011;34088;52.232;5.196;2023-05-07T01:38:29;31.42;;;22.35;;
48268;SDS011;34088;52.232;5.196;2023-05-07T01:40:55;30.67;;;25.10;;
48268;SDS011;34088;52.232;5.196;2023-05-07T01:43:21;30.48;;;23.08;;
48268;SDS011;34088;52.232;5.196;2023-05-07T01:45:47;30.45;;;24.17;;
48268;SDS011;34088;52.232;5.196;2023-05-07T01:48:14;28.50;;;23.98;;
48268;SDS011;34088;52.232;5.196;2023-05-07T01:50:41;28.45;;;22.95;;
48268;SDS011;34088;52.232;5.196;2023-05-07T01:53:07;33.78;;;24.52;;
48268;SDS011;34088;52.232;5.196;2023-05-07T01:55:33;28.50;;;23.92;;
48268;SDS011;34088;52.232;5.196;2023-05-07T01:58:01;24.83;;;22.15;;
48268;SDS011;34088;52.232;5.196;2023-05-07T02:00:27;30.02;;;22.77;;
48268;SDS011;34088;52.232;5.196;2023-05-07T02:02:53;30.17;;;23.27;;
48268;SDS011;34088;52.232;5.196;2023-05-07T02:05:20;32.08;;;24.38;;
48268;SDS011;34088;52.232;5.196;2023-05-07T02:07:46;31.58;;;23.95;;
48268;SDS011;34088;52.232;5.196;2023-05-07T02:10:12;32.70;;;24.92;;
48268;SDS011;34088;52.232;5.196;2023-05-07T02:12:38;31.52;;;23.73;;
48268;SDS011;34088;52.232;5.196;2023-05-07T02:15:04;25.23;;;22.52;;
48268;SDS011;34088;52.232;5.196;2023-05-07T02:17:30;28.20;;;22.00;;
48268;SDS011;34088;52.232;5.196;2023-05-07T02:19:59;26.90;;;21.45;;
48268;SDS011;34088;52.232;5.196;2023-05-07T02:22:25;28.67;;;23.20;;
48268;SDS011;34088;52.232;5.196;2023-05-07T02:24:51;26.40;;;22.80;;
48268;SDS011;34088;52.232;5.196;2023-05-07T02:27:17;27.60;;;21.38;;
48268;SDS011;34088;52.232;5.196;2023-05-07T02:29:43;26.35;;;22.02;;
48268;SDS011;34088;52.232;5.196;2023-05-07T02:32:09;23.67;;;20.77;;
48268;SDS011;34088;52.232;5.196;2023-05-07T02:34:35;26.75;;;22.13;;
48268;SDS011;34088;52.232;5.196;2023-05-07T02:37:00;25.40;;;21.17;;
48268;SDS011;34088;52.232;5.196;2023-05-07T02:39:26;24.83;;;20.70;;
48268;SDS011;34088;52.232;5.196;2023-05-07T02:41:53;24.17;;;21.58;;
48268;SDS011;34088;52.232;5.196;2023-05-07T02:44:19;28.80;;;23.60;;
48268;SDS011;34088;52.232;5.196;2023-05-07T02:46:45;26.00;;;20.65;;
48268;SDS011;34088;52.232;5.196;2023-05-07T02:49:11;23.08;;;20.02;;
48268;SDS011;34088;52.232;5.196;2023-05-07T02:51:37;21.20;;;18.85;;
48268;SDS011;34088;52.232;5.196;2023-05-07T02:54:03;26.70;;;20.60;;
48268;SDS011;34088;52.232;5.196;2023-05-07T02:56:29;27.90;;;21.50;;
48268;SDS011;34088;52.232;5.196;2023-05-07T02:58:55;24.77;;;20.80;;
48268;SDS011;34088;52.232;5.196;2023-05-07T03:01:21;24.95;;;21.40;;
48268;SDS011;34088;52.232;5.196;2023-05-07T03:03:47;25.42;;;20.95;;
48268;SDS011;34088;52.232;5.196;2023-05-07T03:06:13;26.30;;;21.55;;
48268;SDS011;34088;52.232;5.196;2023-05-07T03:08:40;29.00;;;23.75;;
48268;SDS011;34088;52.232;5.196;2023-05-07T03:11:06;26.10;;;21.25;;
48268;SDS011;34088;52.232;5.196;2023-05-07T03:13:32;34.33;;;23.58;;
48268;SDS011;34088;52.232;5.196;2023-05-07T03:15:58;30.42;;;23.20;;
48268;SDS011;34088;52.232;5.196;2023-05-07T03:18:24;24.02;;;21.45;;
48268;SDS011;34088;52.232;5.196;2023-05-07T03:20:50;25.25;;;21.48;;
48268;SDS011;34088;52.232;5.196;2023-05-07T03:23:15;28.67;;;22.00;;
48268;SDS011;34088;52.232;5.196;2023-05-07T03:25:41;29.17;;;24.10;;
48268;SDS011;34088;52.232;5.196;2023-05-07T03:28:07;29.50;;;22.77;;
48268;SDS011;34088;52.232;5.196;2023-05-07T03:30:33;28.95;;;24.15;;
48268;SDS011;34088;52.232;5.196;2023-05-07T03:32:59;26.02;;;22.45;;
48268;SDS011;34088;52.232;5.196;2023-05-07T03:35:25;26.02;;;21.42;;
48268;SDS011;34088;52.232;5.196;2023-05-07T03:37:51;24.50;;;21.80;;
48268;SDS011;34088;52.232;5.196;2023-05-07T03:40:17;29.88;;;22.83;;
48268;SDS011;34088;52.232;5.196;2023-05-07T03:42:43;30.00;;;24.30;;
48268;SDS011;34088;52.232;5.196;2023-05-07T03:45:09;27.67;;;23.35;;
48268;SDS011;34088;52.232;5.196;2023-05-07T03:47:35;27.10;;;22.67;;
48268;SDS011;34088;52.232;5.196;2023-05-07T03:50:01;30.43;;;27.20;;
48268;SDS011;34088;52.232;5.196;2023-05-07T03:52:27;26.52;;;23.35;;
48268;SDS011;34088;52.232;5.196;2023-05-07T03:54:53;27.00;;;23.67;;
48268;SDS011;34088;52.232;5.196;2023-05-07T03:57:19;33.45;;;25.10;;
48268;SDS011;34088;52.232;5.196;2023-05-07T03:59:45;27.65;;;23.38;;
48268;SDS011;34088;52.232;5.196;2023-05-07T04:02:11;29.33;;;23.35;;
48268;SDS011;34088;52.232;5.196;2023-05-07T04:04:37;27.52;;;22.75;;
48268;SDS011;34088;52.232;5.196;2023-05-07T04:07:03;26.73;;;22.30;;
48268;SDS011;34088;52.232;5.196;2023-05-07T04:09:29;27.70;;;23.42;;
48268;SDS011;34088;52.232;5.196;2023-05-07T04:11:55;30.35;;;23.15;;
48268;SDS011;34088;52.232;5.196;2023-05-07T04:14:21;29.43;;;26.40;;
48268;SDS011;34088;52.232;5.196;2023-05-07T04:16:47;31.13;;;27.83;;
48268;SDS011;34088;52.232;5.196;2023-05-07T04:19:13;36.75;;;27.23;;
48268;SDS011;34088;52.232;5.196;2023-05-07T04:21:39;29.00;;;24.67;;
48268;SDS011;34088;52.232;5.196;2023-05-07T04:26:31;29.48;;;22.67;;
48268;SDS011;34088;52.232;5.196;2023-05-07T04:28:57;32.15;;;27.00;;
48268;SDS011;34088;52.232;5.196;2023-05-07T04:31:24;32.03;;;28.67;;
48268;SDS011;34088;52.232;5.196;2023-05-07T04:33:50;30.75;;;27.52;;
48268;SDS011;34088;52.232;5.196;2023-05-07T04:36:16;28.55;;;25.30;;
48268;SDS011;34088;52.232;5.196;2023-05-07T04:38:42;28.20;;;25.23;;
48268;SDS011;34088;52.232;5.196;2023-05-07T04:41:08;27.60;;;22.67;;
48268;SDS011;34088;52.232;5.196;2023-05-07T04:43:34;28.17;;;22.90;;
48268;SDS011;34088;52.232;5.196;2023-05-07T04:46:00;30.40;;;23.67;;
48268;SDS011;34088;52.232;5.196;2023-05-07T04:48:26;30.08;;;24.35;;
48268;SDS011;34088;52.232;5.196;2023-05-07T04:50:53;28.38;;;23.05;;
48268;SDS011;34088;52.232;5.196;2023-05-07T04:53:19;28.33;;;24.35;;
48268;SDS011;34088;52.232;5.196;2023-05-07T04:55:46;29.63;;;24.33;;
48268;SDS011;34088;52.232;5.196;2023-05-07T04:58:12;25.92;;;23.13;;
48268;SDS011;34088;52.232;5.196;2023-05-07T05:00:38;26.77;;;23.38;;
48268;SDS011;34088;52.232;5.196;2023-05-07T05:03:06;25.08;;;22.13;;
48268;SDS011;34088;52.232;5.196;2023-05-07T05:05:32;32.35;;;25.23;;
48268;SDS011;34088;52.232;5.196;2023-05-07T05:07:58;27.60;;;23.38;;
48268;SDS011;34088;52.232;5.196;2023-05-07T05:10:24;26.92;;;22.52;;
48268;SDS011;34088;52.232;5.196;2023-05-07T05:12:50;29.70;;;25.45;;
48268;SDS011;34088;52.232;5.196;2023-05-07T05:15:17;31.73;;;25.10;;
48268;SDS011;34088;52.232;5.196;2023-05-07T05:17:42;28.65;;;23.55;;
48268;SDS011;34088;52.232;5.196;2023-05-07T05:20:09;31.95;;;23.65;;
48268;SDS011;34088;52.232;5.196;2023-05-07T05:22:36;28.58;;;23.67;;
48268;SDS011;34088;52.232;5.196;2023-05-07T05:25:02;26.58;;;23.65;;
48268;SDS011;34088;52.232;5.196;2023-05-07T05:27:28;25.63;;;22.00;;
48268;SDS011;34088;52.232;5.196;2023-05-07T05:29:54;22.13;;;18.98;;
48268;SDS011;34088;52.232;5.196;2023-05-07T05:32:20;25.20;;;19.92;;
48268;SDS011;34088;52.232;5.196;2023-05-07T05:34:46;25.77;;;21.05;;
48268;SDS011;34088;52.232;5.196;2023-05-07T05:37:12;30.00;;;23.33;;
48268;SDS011;34088;52.232;5.196;2023-05-07T05:39:38;28.45;;;21.38;;
48268;SDS011;34088;52.232;5.196;2023-05-07T05:42:04;26.08;;;20.67;;
48268;SDS011;34088;52.232;5.196;2023-05-07T05:44:30;30.40;;;23.23;;
48268;SDS011;34088;52.232;5.196;2023-05-07T05:46:56;27.27;;;21.70;;
48268;SDS011;34088;52.232;5.196;2023-05-07T05:49:24;28.48;;;22.85;;
48268;SDS011;34088;52.232;5.196;2023-05-07T05:51:50;29.83;;;23.85;;
48268;SDS011;34088;52.232;5.196;2023-05-07T05:54:16;28.00;;;23.88;;
48268;SDS011;34088;52.232;5.196;2023-05-07T05:56:42;37.28;;;27.48;;
48268;SDS011;34088;52.232;5.196;2023-05-07T05:59:08;33.67;;;25.55;;
48268;SDS011;34088;52.232;5.196;2023-05-07T06:01:34;30.10;;;23.23;;
48268;SDS011;34088;52.232;5.196;2023-05-07T06:04:00;36.20;;;28.25;;
48268;SDS011;34088;52.232;5.196;2023-05-07T06:06:26;32.63;;;26.27;;
48268;SDS011;34088;52.232;5.196;2023-05-07T06:08:52;38.42;;;30.02;;
48268;SDS011;34088;52.232;5.196;2023-05-07T06:11:18;34.65;;;27.63;;
48268;SDS011;34088;52.232;5.196;2023-05-07T06:13:44;35.15;;;28.15;;
48268;SDS011;34088;52.232;5.196;2023-05-07T06:16:10;32.42;;;27.73;;
48268;SDS011;34088;52.232;5.196;2023-05-07T06:18:36;32.92;;;27.60;;
48268;SDS011;34088;52.232;5.196;2023-05-07T06:21:03;35.05;;;28.15;;
48268;SDS011;34088;52.232;5.196;2023-05-07T06:23:29;30.95;;;25.02;;
48268;SDS011;34088;52.232;5.196;2023-05-07T06:25:55;31.08;;;25.27;;
48268;SDS011;34088;52.232;5.196;2023-05-07T06:28:21;31.00;;;27.17;;
48268;SDS011;34088;52.232;5.196;2023-05-07T06:30:47;35.15;;;28.95;;
48268;SDS011;34088;52.232;5.196;2023-05-07T06:33:14;36.97;;;29.33;;
48268;SDS011;34088;52.232;5.196;2023-05-07T06:35:40;31.60;;;26.02;;
48268;SDS011;34088;52.232;5.196;2023-05-07T06:38:06;34.10;;;28.33;;
48268;SDS011;34088;52.232;5.196;2023-05-07T06:40:32;34.50;;;27.20;;
48268;SDS011;34088;52.232;5.196;2023-05-07T06:42:58;37.17;;;27.42;;
48268;SDS011;34088;52.232;5.196;2023-05-07T06:45:24;37.30;;;28.88;;
48268;SDS011;34088;52.232;5.196;2023-05-07T06:47:50;38.40;;;30.20;;
48268;SDS011;34088;52.232;5.196;2023-05-07T06:50:16;34.28;;;27.85;;
48268;SDS011;34088;52.232;5.196;2023-05-07T06:52:42;36.67;;;29.23;;
48268;SDS011;34088;52.232;5.196;2023-05-07T06:55:08;34.67;;;27.75;;
48268;SDS011;34088;52.232;5.196;2023-05-07T06:57:36;35.63;;;28.17;;
48268;SDS011;34088;52.232;5.196;2023-05-07T07:00:01;34.10;;;27.52;;
48268;SDS011;34088;52.232;5.196;2023-05-07T07:02:28;34.53;;;26.50;;
48268;SDS011;34088;52.232;5.196;2023-05-07T07:04:54;33.42;;;27.05;;
48268;SDS011;34088;52.232;5.196;2023-05-07T07:07:20;39.47;;;29.73;;
48268;SDS011;34088;52.232;5.196;2023-05-07T07:09:46;30.40;;;25.15;;
48268;SDS011;34088;52.232;5.196;2023-05-07T07:12:12;31.15;;;25.85;;
48268;SDS011;34088;52.232;5.196;2023-05-07T07:14:37;31.88;;;26.55;;
48268;SDS011;34088;52.232;5.196;2023-05-07T07:17:03;32.08;;;27.60;;
48268;SDS011;34088;52.232;5.196;2023-05-07T07:19:30;30.63;;;25.65;;
48268;SDS011;34088;52.232;5.196;2023-05-07T07:21:56;32.20;;;26.83;;
48268;SDS011;34088;52.232;5.196;2023-05-07T07:24:22;33.92;;;27.77;;
48268;SDS011;34088;52.232;5.196;2023-05-07T07:26:48;30.75;;;26.73;;
48268;SDS011;34088;52.232;5.196;2023-05-07T07:29:14;31.17;;;26.27;;
48268;SDS011;34088;52.232;5.196;2023-05-07T07:31:40;31.20;;;26.55;;
48268;SDS011;34088;52.232;5.196;2023-05-07T07:34:05;28.42;;;23.70;;
48268;SDS011;34088;52.232;5.196;2023-05-07T07:36:31;31.80;;;26.00;;
48268;SDS011;34088;52.232;5.196;2023-05-07T07:38:57;31.08;;;25.02;;
48268;SDS011;34088;52.232;5.196;2023-05-07T07:41:23;28.60;;;24.13;;
48268;SDS011;34088;52.232;5.196;2023-05-07T07:43:50;29.77;;;24.15;;
48268;SDS011;34088;52.232;5.196;2023-05-07T07:46:16;27.95;;;23.63;;
48268;SDS011;34088;52.232;5.196;2023-05-07T07:48:42;28.95;;;25.23;;
48268;SDS011;34088;52.232;5.196;2023-05-07T07:51:08;27.83;;;24.45;;
48268;SDS011;34088;52.232;5.196;2023-05-07T07:53:34;26.17;;;22.63;;
48268;SDS011;34088;52.232;5.196;2023-05-07T07:55:59;28.42;;;23.88;;
48268;SDS011;34088;52.232;5.196;2023-05-07T07:58:25;29.10;;;25.63;;
48268;SDS011;34088;52.232;5.196;2023-05-07T08:00:51;28.63;;;25.10;;
48268;SDS011;34088;52.232;5.196;2023-05-07T08:03:19;27.63;;;24.15;;
48268;SDS011;34088;52.232;5.196;2023-05-07T08:05:45;29.80;;;25.10;;
48268;SDS011;34088;52.232;5.196;2023-05-07T08:08:11;31.63;;;26.48;;
48268;SDS011;34088;52.232;5.196;2023-05-07T08:10:37;30.75;;;26.75;;
48268;SDS011;34088;52.232;5.196;2023-05-07T08:13:04;28.95;;;24.42;;
48268;SDS011;34088;52.232;5.196;2023-05-07T08:15:30;28.67;;;25.60;;
48268;SDS011;34088;52.232;5.196;2023-05-07T08:17:57;31.05;;;25.00;;
48268;SDS011;34088;52.232;5.196;2023-05-07T08:20:25;29.05;;;25.92;;
48268;SDS011;34088;52.232;5.196;2023-05-07T08:22:51;29.52;;;25.80;;
48268;SDS011;34088;52.232;5.196;2023-05-07T08:25:17;31.85;;;25.02;;
48268;SDS011;34088;52.232;5.196;2023-05-07T08:27:43;28.08;;;24.23;;
48268;SDS011;34088;52.232;5.196;2023-05-07T08:30:10;30.77;;;26.33;;
48268;SDS011;34088;52.232;5.196;2023-05-07T08:32:36;25.13;;;22.45;;
48268;SDS011;34088;52.232;5.196;2023-05-07T08:35:02;25.60;;;22.98;;
48268;SDS011;34088;52.232;5.196;2023-05-07T08:37:28;28.27;;;24.30;;
48268;SDS011;34088;52.232;5.196;2023-05-07T08:39:54;28.02;;;23.73;;
48268;SDS011;34088;52.232;5.196;2023-05-07T08:42:20;30.27;;;24.73;;
48268;SDS011;34088;52.232;5.196;2023-05-07T08:44:46;28.98;;;24.90;;
48268;SDS011;34088;52.232;5.196;2023-05-07T08:47:12;25.60;;;22.75;;
48268;SDS011;34088;52.232;5.196;2023-05-07T08:49:38;26.25;;;23.45;;
48268;SDS011;34088;52.232;5.196;2023-05-07T08:52:04;28.38;;;25.05;;
48268;SDS011;34088;52.232;5.196;2023-05-07T08:54:31;28.95;;;25.00;;
48268;SDS011;34088;52.232;5.196;2023-05-07T08:56:57;26.42;;;23.45;;
48268;SDS011;34088;52.232;5.196;2023-05-07T08:59:23;26.35;;;23.65;;
48268;SDS011;34088;52.232;5.196;2023-05-07T09:01:49;27.67;;;23.38;;
48268;SDS011;34088;52.232;5.196;2023-05-07T09:04:15;22.95;;;20.60;;
48268;SDS011;34088;52.232;5.196;2023-05-07T09:06:41;26.02;;;23.23;;
48268;SDS011;34088;52.232;5.196;2023-05-07T09:09:07;24.90;;;22.40;;
48268;SDS011;34088;52.232;5.196;2023-05-07T09:11:33;26.30;;;23.45;;
48268;SDS011;34088;52.232;5.196;2023-05-07T09:13:59;24.50;;;21.05;;
48268;SDS011;34088;52.232;5.196;2023-05-07T09:16:29;23.58;;;20.45;;
48268;SDS011;34088;52.232;5.196;2023-05-07T09:18:56;24.83;;;21.98;;
48268;SDS011;34088;52.232;5.196;2023-05-07T09:21:23;23.65;;;21.23;;
48268;SDS011;34088;52.232;5.196;2023-05-07T09:23:52;20.05;;;17.92;;
48268;SDS011;34088;52.232;5.196;2023-05-07T09:26:18;23.08;;;19.92;;
48268;SDS011;34088;52.232;5.196;2023-05-07T09:28:46;21.33;;;17.92;;
48268;SDS011;34088;52.232;5.196;2023-05-07T09:31:12;19.25;;;17.20;;
48268;SDS011;34088;52.232;5.196;2023-05-07T09:33:38;18.95;;;16.98;;
48268;SDS011;34088;52.232;5.196;2023-05-07T09:36:08;18.33;;;16.35;;
48268;SDS011;34088;52.232;5.196;2023-05-07T09:38:35;18.63;;;16.73;;
48268;SDS011;34088;52.232;5.196;2023-05-07T09:41:04;17.55;;;15.63;;
48268;SDS011;34088;52.232;5.196;2023-05-07T09:43:31;17.90;;;15.77;;
48268;SDS011;34088;52.232;5.196;2023-05-07T09:46:00;18.98;;;16.42;;
48268;SDS011;34088;52.232;5.196;2023-05-07T09:48:27;18.20;;;16.30;;
48268;SDS011;34088;52.232;5.196;2023-05-07T09:50:55;17.85;;;15.45;;
48268;SDS011;34088;52.232;5.196;2023-05-07T09:53:25;17.65;;;15.90;;
48268;SDS011;34088;52.232;5.196;2023-05-07T09:55:51;19.52;;;17.58;;
48268;SDS011;34088;52.232;5.196;2023-05-07T09:58:18;18.40;;;16.17;;
48268;SDS011;34088;52.232;5.196;2023-05-07T10:00:44;18.85;;;16.95;;
48268;SDS011;34088;52.232;5.196;2023-05-07T10:03:11;15.23;;;13.63;;
48268;SDS011;34088;52.232;5.196;2023-05-07T10:05:37;17.42;;;15.63;;
48268;SDS011;34088;52.232;5.196;2023-05-07T10:08:04;19.00;;;15.90;;
48268;SDS011;34088;52.232;5.196;2023-05-07T10:10:30;15.95;;;14.18;;
48268;SDS011;34088;52.232;5.196;2023-05-07T10:12:56;16.73;;;14.90;;
48268;SDS011;34088;52.232;5.196;2023-05-07T10:15:22;16.45;;;14.07;;
48268;SDS011;34088;52.232;5.196;2023-05-07T10:17:49;16.65;;;14.38;;
48268;SDS011;34088;52.232;5.196;2023-05-07T10:20:17;16.95;;;15.15;;
48268;SDS011;34088;52.232;5.196;2023-05-07T10:22:44;18.98;;;14.93;;
48268;SDS011;34088;52.232;5.196;2023-05-07T10:25:14;16.42;;;14.73;;
48268;SDS011;34088;52.232;5.196;2023-05-07T10:27:42;16.73;;;15.02;;
48268;SDS011;34088;52.232;5.196;2023-05-07T10:30:15;18.02;;;14.40;;
48268;SDS011;34088;52.232;5.196;2023-05-07T10:32:47;15.85;;;14.13;;
48268;SDS011;34088;52.232;5.196;2023-05-07T10:35:22;15.10;;;12.95;;
48268;SDS011;34088;52.232;5.196;2023-05-07T10:37:50;13.63;;;11.32;;
48268;SDS011;34088;52.232;5.196;2023-05-07T10:40:16;14.35;;;12.40;;
48268;SDS011;34088;52.232;5.196;2023-05-07T10:42:54;12.52;;;11.23;;
48268;SDS011;34088;52.232;5.196;2023-05-07T10:45:20;14.40;;;11.77;;
48268;SDS011;34088;52.232;5.196;2023-05-07T10:50:32;13.57;;;12.18;;
48268;SDS011;34088;52.232;5.196;2023-05-07T10:55:42;14.98;;;11.27;;
48268;SDS011;34088;52.232;5.196;2023-05-07T11:00:47;11.68;;;9.73;;
48268;SDS011;34088;52.232;5.196;2023-05-07T11:03:14;13.38;;;10.38;;
48268;SDS011;34088;52.232;5.196;2023-05-07T11:05:41;11.35;;;8.70;;
48268;SDS011;34088;52.232;5.196;2023-05-07T11:08:07;13.43;;;7.32;;
48268;SDS011;34088;52.232;5.196;2023-05-07T11:13:18;10.45;;;6.70;;
48268;SDS011;34088;52.232;5.196;2023-05-07T11:15:45;8.50;;;4.90;;
48268;SDS011;34088;52.232;5.196;2023-05-07T11:18:12;9.82;;;4.78;;
48268;SDS011;34088;52.232;5.196;2023-05-07T11:26:04;7.25;;;4.93;;
48268;SDS011;34088;52.232;5.196;2023-05-07T11:28:30;9.43;;;5.95;;
48268;SDS011;34088;52.232;5.196;2023-05-07T11:30:57;8.02;;;4.80;;
48268;SDS011;34088;52.232;5.196;2023-05-07T11:33:23;7.85;;;4.95;;
48268;SDS011;34088;52.232;5.196;2023-05-07T11:35:53;6.88;;;4.07;;
48268;SDS011;34088;52.232;5.196;2023-05-07T11:38:19;8.40;;;4.57;;
48268;SDS011;34088;52.232;5.196;2023-05-07T11:40:51;7.22;;;4.55;;
48268;SDS011;34088;52.232;5.196;2023-05-07T11:43:17;8.57;;;5.05;;
48268;SDS011;34088;52.232;5.196;2023-05-07T11:45:46;5.57;;;4.40;;
48268;SDS011;34088;52.232;5.196;2023-05-07T11:48:13;6.65;;;3.70;;
48268;SDS011;34088;52.232;5.196;2023-05-07T11:50:49;8.07;;;3.75;;
48268;SDS011;34088;52.232;5.196;2023-05-07T11:53:16;5.20;;;3.53;;
48268;SDS011;34088;52.232;5.196;2023-05-07T11:55:42;7.72;;;4.13;;
48268;SDS011;34088;52.232;5.196;2023-05-07T11:58:10;6.07;;;4.32;;
48268;SDS011;34088;52.232;5.196;2023-05-07T12:00:36;8.27;;;4.72;;
48268;SDS011;34088;52.232;5.196;2023-05-07T12:03:05;5.50;;;4.10;;
48268;SDS011;34088;52.232;5.196;2023-05-07T12:05:31;7.25;;;4.80;;
48268;SDS011;34088;52.232;5.196;2023-05-07T12:07:57;8.20;;;4.88;;
48268;SDS011;34088;52.232;5.196;2023-05-07T12:10:23;10.20;;;5.10;;
48268;SDS011;34088;52.232;5.196;2023-05-07T12:12:50;8.20;;;4.82;;
48268;SDS011;34088;52.232;5.196;2023-05-07T12:15:16;8.82;;;4.72;;
48268;SDS011;34088;52.232;5.196;2023-05-07T12:17:42;8.30;;;5.57;;
48268;SDS011;34088;52.232;5.196;2023-05-07T12:20:09;10.40;;;5.88;;
48268;SDS011;34088;52.232;5.196;2023-05-07T12:22:35;7.45;;;5.72;;
48268;SDS011;34088;52.232;5.196;2023-05-07T12:25:01;8.18;;;5.10;;
48268;SDS011;34088;52.232;5.196;2023-05-07T12:27:28;7.93;;;4.85;;
48268;SDS011;34088;52.232;5.196;2023-05-07T12:29:54;9.75;;;6.18;;
48268;SDS011;34088;52.232;5.196;2023-05-07T12:32:20;9.45;;;7.47;;
48268;SDS011;34088;52.232;5.196;2023-05-07T12:34:49;10.13;;;6.40;;
48268;SDS011;34088;52.232;5.196;2023-05-07T12:37:15;10.10;;;7.30;;
48268;SDS011;34088;52.232;5.196;2023-05-07T12:39:48;11.18;;;7.88;;
48268;SDS011;34088;52.232;5.196;2023-05-07T12:42:14;9.68;;;7.13;;
48268;SDS011;34088;52.232;5.196;2023-05-07T12:44:41;9.50;;;7.35;;
48268;SDS011;34088;52.232;5.196;2023-05-07T12:47:07;10.18;;;6.82;;
48268;SDS011;34088;52.232;5.196;2023-05-07T12:49:34;9.90;;;7.13;;
48268;SDS011;34088;52.232;5.196;2023-05-07T12:52:03;10.35;;;7.10;;
48268;SDS011;34088;52.232;5.196;2023-05-07T12:54:30;10.38;;;7.70;;
48268;SDS011;34088;52.232;5.196;2023-05-07T12:57:03;10.38;;;6.30;;
48268;SDS011;34088;52.232;5.196;2023-05-07T12:59:31;9.82;;;7.95;;
48268;SDS011;34088;52.232;5.196;2023-05-07T13:01:56;12.60;;;8.05;;
48268;SDS011;34088;52.232;5.196;2023-05-07T13:04:24;10.50;;;7.75;;
48268;SDS011;34088;52.232;5.196;2023-05-07T13:06:50;11.00;;;8.00;;
48268;SDS011;34088;52.232;5.196;2023-05-07T13:09:16;10.20;;;7.78;;
48268;SDS011;34088;52.232;5.196;2023-05-07T13:11:41;9.63;;;7.47;;
48268;SDS011;34088;52.232;5.196;2023-05-07T13:14:07;10.48;;;7.15;;
48268;SDS011;34088;52.232;5.196;2023-05-07T13:16:33;8.85;;;6.60;;
48268;SDS011;34088;52.232;5.196;2023-05-07T13:18:59;8.73;;;6.43;;
48268;SDS011;34088;52.232;5.196;2023-05-07T13:21:25;11.18;;;7.35;;
48268;SDS011;34088;52.232;5.196;2023-05-07T13:23:51;11.00;;;7.43;;
48268;SDS011;34088;52.232;5.196;2023-05-07T13:26:17;10.55;;;7.85;;
48268;SDS011;34088;52.232;5.196;2023-05-07T13:28:43;11.93;;;7.40;;
48268;SDS011;34088;52.232;5.196;2023-05-07T13:31:09;11.30;;;7.50;;
48268;SDS011;34088;52.232;5.196;2023-05-07T13:33:35;10.60;;;7.45;;
48268;SDS011;34088;52.232;5.196;2023-05-07T13:36:02;14.75;;;8.43;;
48268;SDS011;34088;52.232;5.196;2023-05-07T13:38:29;9.73;;;7.78;;
48268;SDS011;34088;52.232;5.196;2023-05-07T13:40:55;10.68;;;7.88;;
48268;SDS011;34088;52.232;5.196;2023-05-07T13:43:21;11.07;;;8.02;;
48268;SDS011;34088;52.232;5.196;2023-05-07T13:45:47;11.30;;;8.35;;
48268;SDS011;34088;52.232;5.196;2023-05-07T13:48:13;13.43;;;8.68;;
48268;SDS011;34088;52.232;5.196;2023-05-07T13:50:39;13.38;;;9.00;;
48268;SDS011;34088;52.232;5.196;2023-05-07T13:53:05;12.75;;;9.13;;
48268;SDS011;34088;52.232;5.196;2023-05-07T13:55:31;13.27;;;9.02;;
48268;SDS011;34088;52.232;5.196;2023-05-07T13:57:58;11.95;;;8.40;;
48268;SDS011;34088;52.232;5.196;2023-05-07T14:00:25;12.35;;;8.60;;
48268;SDS011;34088;52.232;5.196;2023-05-07T14:02:51;12.20;;;8.88;;
48268;SDS011;34088;52.232;5.196;2023-05-07T14:05:17;13.63;;;9.38;;
48268;SDS011;34088;52.232;5.196;2023-05-07T14:07:43;11.23;;;8.85;;
48268;SDS011;34088;52.232;5.196;2023-05-07T14:10:10;12.15;;;9.73;;
48268;SDS011;34088;52.232;5.196;2023-05-07T14:12:36;13.75;;;10.10;;
48268;SDS011;34088;52.232;5.196;2023-05-07T14:15:02;14.70;;;9.90;;
48268;SDS011;34088;52.232;5.196;2023-05-07T14:17:28;15.65;;;10.93;;
48268;SDS011;34088;52.232;5.196;2023-05-07T14:19:55;15.80;;;11.93;;
48268;SDS011;34088;52.232;5.196;2023-05-07T14:22:21;16.30;;;12.48;;
48268;SDS011;34088;52.232;5.196;2023-05-07T14:24:48;19.67;;;13.48;;
48268;SDS011;34088;52.232;5.196;2023-05-07T14:27:14;19.90;;;14.27;;
48268;SDS011;34088;52.232;5.196;2023-05-07T14:29:40;20.55;;;13.27;;
48268;SDS011;34088;52.232;5.196;2023-05-07T14:32:07;26.33;;;14.40;;
48268;SDS011;34088;52.232;5.196;2023-05-07T14:34:33;23.13;;;15.70;;
48268;SDS011;34088;52.232;5.196;2023-05-07T14:36:59;24.42;;;15.52;;
48268;SDS011;34088;52.232;5.196;2023-05-07T14:39:26;25.10;;;16.73;;
48268;SDS011;34088;52.232;5.196;2023-05-07T14:41:52;18.95;;;15.27;;
48268;SDS011;34088;52.232;5.196;2023-05-07T14:44:19;24.17;;;17.27;;
48268;SDS011;34088;52.232;5.196;2023-05-07T14:46:45;31.58;;;18.15;;
48268;SDS011;34088;52.232;5.196;2023-05-07T14:49:11;24.45;;;17.25;;
48268;SDS011;34088;52.232;5.196;2023-05-07T14:51:42;31.13;;;18.95;;